IGO3462 VEIM-VEGT
Flight info
| Callsign | IGO3462 |
|---|---|
| Flight time | 0h 38m |
| Altitude | 14000 |
| Route | KKU4D KKU W53 GGT |
| Aircraft | A21N/M-SDE3FGHIRWY/LB1 |
Departure
| Time | 2026-05-05 07:47 |
|---|---|
| Airport | Bir Tikendrajit International Airport (VEIM) |
Arrival
| Time | 2026-05-05 08:25 |
|---|---|
| Airport | Lokpriya Gopinath Bordoloi International Airport (VEGT) |
| Time | Latitude | Longitude | Altitude | Speed | Heading |
|---|---|---|---|---|---|
| 2026-05-05 07:32 | 24.76416 | 93.89849 | 2594 ft | 0 kts | 215° |
| 2026-05-05 07:39 | 24.76415 | 93.89848 | 2593 ft | 0 kts | 205° |
| 2026-05-05 07:39 | 24.76413 | 93.89848 | 2593 ft | 0 kts | 189° |
| 2026-05-05 07:39 | 24.76411 | 93.89849 | 2593 ft | 0 kts | 167° |
| 2026-05-05 07:39 | 24.76410 | 93.89851 | 2593 ft | 0 kts | 145° |
| 2026-05-05 07:40 | 24.76408 | 93.89853 | 2593 ft | 0 kts | 128° |
| 2026-05-05 07:40 | 24.76405 | 93.89859 | 2593 ft | 1 kts | 108° |
| 2026-05-05 07:40 | 24.76401 | 93.89875 | 2593 ft | 3 kts | 107° |
| 2026-05-05 07:40 | 24.76391 | 93.89902 | 2592 ft | 4 kts | 117° |
| 2026-05-05 07:41 | 24.76368 | 93.89943 | 2591 ft | 7 kts | 123° |
| 2026-05-05 07:41 | 24.76324 | 93.89974 | 2590 ft | 8 kts | 195° |
| 2026-05-05 07:41 | 24.76273 | 93.89941 | 2590 ft | 9 kts | 214° |
| 2026-05-05 07:41 | 24.76216 | 93.89899 | 2589 ft | 10 kts | 213° |
| 2026-05-05 07:42 | 24.76153 | 93.89851 | 2588 ft | 11 kts | 214° |
| 2026-05-05 07:42 | 24.76085 | 93.89802 | 2588 ft | 11 kts | 214° |
| 2026-05-05 07:42 | 24.76014 | 93.89749 | 2587 ft | 12 kts | 213° |
| 2026-05-05 07:42 | 24.75941 | 93.89695 | 2587 ft | 12 kts | 214° |
| 2026-05-05 07:43 | 24.75867 | 93.89641 | 2587 ft | 13 kts | 213° |
| 2026-05-05 07:43 | 24.75790 | 93.89585 | 2587 ft | 12 kts | 213° |
| 2026-05-05 07:43 | 24.75716 | 93.89532 | 2587 ft | 12 kts | 213° |
| 2026-05-05 07:43 | 24.75643 | 93.89480 | 2587 ft | 12 kts | 213° |
| 2026-05-05 07:44 | 24.75573 | 93.89428 | 2588 ft | 12 kts | 214° |
| 2026-05-05 07:44 | 24.75503 | 93.89374 | 2588 ft | 12 kts | 215° |
| 2026-05-05 07:44 | 24.75430 | 93.89317 | 2588 ft | 13 kts | 213° |
| 2026-05-05 07:44 | 24.75348 | 93.89258 | 2588 ft | 14 kts | 213° |
| 2026-05-05 07:45 | 24.75260 | 93.89194 | 2587 ft | 16 kts | 214° |
| 2026-05-05 07:45 | 24.75160 | 93.89121 | 2585 ft | 18 kts | 213° |
| 2026-05-05 07:45 | 24.75049 | 93.89038 | 2582 ft | 19 kts | 214° |
| 2026-05-05 07:45 | 24.74989 | 93.88929 | 2582 ft | 11 kts | 227° |
| 2026-05-05 07:46 | 24.74961 | 93.88961 | 2582 ft | 9 kts | 72° |
| 2026-05-05 07:46 | 24.75011 | 93.89009 | 2582 ft | 10 kts | 33° |
| 2026-05-05 07:46 | 24.75143 | 93.89107 | 2584 ft | 52 kts | 33° |
| 2026-05-05 07:46 | 24.75642 | 93.89474 | 2588 ft | 119 kts | 34° |
| 2026-05-05 07:47 | 24.76501 | 93.90108 | 2591 ft | 175 kts | 34° |
| 2026-05-05 07:47 | 24.77553 | 93.90891 | 3016 ft | 184 kts | 35° |
| 2026-05-05 07:47 | 24.78612 | 93.91693 | 3621 ft | 187 kts | 35° |
| 2026-05-05 07:47 | 24.79695 | 93.92508 | 4248 ft | 189 kts | 33° |
| 2026-05-05 07:48 | 24.80781 | 93.93323 | 4795 ft | 190 kts | 34° |
| 2026-05-05 07:48 | 24.81903 | 93.94179 | 5116 ft | 204 kts | 33° |
| 2026-05-05 07:48 | 24.83127 | 93.95104 | 5417 ft | 220 kts | 33° |
| 2026-05-05 07:48 | 24.84428 | 93.96085 | 5743 ft | 235 kts | 33° |
| 2026-05-05 07:49 | 24.85834 | 93.97147 | 6078 ft | 251 kts | 33° |
| 2026-05-05 07:49 | 24.87324 | 93.98269 | 6490 ft | 265 kts | 33° |
| 2026-05-05 07:49 | 24.88854 | 93.99425 | 7136 ft | 269 kts | 33° |
| 2026-05-05 07:49 | 24.90386 | 94.00582 | 7820 ft | 271 kts | 33° |
| 2026-05-05 07:50 | 24.91951 | 94.01771 | 8521 ft | 273 kts | 35° |
| 2026-05-05 07:50 | 24.93228 | 94.03325 | 9144 ft | 279 kts | 65° |
| 2026-05-05 07:50 | 24.93535 | 94.05383 | 9843 ft | 280 kts | 99° |
| 2026-05-05 07:50 | 24.92769 | 94.07310 | 10472 ft | 280 kts | 133° |
| 2026-05-05 07:51 | 24.91163 | 94.08502 | 10865 ft | 278 kts | 166° |
| 2026-05-05 07:51 | 24.89269 | 94.08746 | 11025 ft | 279 kts | 180° |
| 2026-05-05 07:51 | 24.87312 | 94.08833 | 11020 ft | 279 kts | 178° |
| 2026-05-05 07:51 | 24.85350 | 94.09019 | 11026 ft | 280 kts | 176° |
| 2026-05-05 07:52 | 24.83412 | 94.09290 | 11082 ft | 284 kts | 174° |
| 2026-05-05 07:52 | 24.81430 | 94.09356 | 11521 ft | 285 kts | 196° |
| 2026-05-05 07:52 | 24.79727 | 94.08360 | 12296 ft | 274 kts | 228° |
| 2026-05-05 07:52 | 24.78763 | 94.06605 | 12827 ft | 277 kts | 253° |
| 2026-05-05 07:53 | 24.78290 | 94.04486 | 13198 ft | 291 kts | 256° |
| 2026-05-05 07:53 | 24.77796 | 94.02268 | 13472 ft | 307 kts | 256° |
| 2026-05-05 07:53 | 24.77252 | 93.99930 | 13764 ft | 323 kts | 255° |
| 2026-05-05 07:53 | 24.76679 | 93.97508 | 14041 ft | 338 kts | 255° |
| 2026-05-05 07:54 | 24.76068 | 93.94951 | 14306 ft | 353 kts | 255° |
| 2026-05-05 07:54 | 24.75439 | 93.92284 | 14599 ft | 366 kts | 257° |
| 2026-05-05 07:54 | 24.75090 | 93.89482 | 15097 ft | 372 kts | 266° |
| 2026-05-05 07:54 | 24.75179 | 93.86643 | 15669 ft | 375 kts | 276° |
| 2026-05-05 07:55 | 24.75625 | 93.83833 | 16225 ft | 378 kts | 280° |
| 2026-05-05 07:55 | 24.76166 | 93.80974 | 16785 ft | 381 kts | 281° |
| 2026-05-05 07:55 | 24.76717 | 93.78118 | 17302 ft | 383 kts | 281° |
| 2026-05-05 07:55 | 24.77262 | 93.75276 | 17783 ft | 386 kts | 281° |
| 2026-05-05 07:56 | 24.77817 | 93.72356 | 18023 ft | 387 kts | 281° |
| 2026-05-05 07:56 | 24.78365 | 93.69460 | 18037 ft | 386 kts | 281° |
| 2026-05-05 07:56 | 24.78904 | 93.66596 | 18048 ft | 386 kts | 281° |
| 2026-05-05 07:56 | 24.79451 | 93.63680 | 18039 ft | 386 kts | 281° |
| 2026-05-05 07:57 | 24.79987 | 93.60815 | 18030 ft | 386 kts | 281° |
| 2026-05-05 07:57 | 24.80530 | 93.57910 | 18025 ft | 386 kts | 281° |
| 2026-05-05 07:57 | 24.81070 | 93.55015 | 18013 ft | 386 kts | 281° |
| 2026-05-05 07:57 | 24.81608 | 93.52128 | 17994 ft | 387 kts | 281° |
| 2026-05-05 07:58 | 24.82154 | 93.49195 | 17988 ft | 387 kts | 281° |
| 2026-05-05 07:58 | 24.82689 | 93.46314 | 17981 ft | 387 kts | 281° |
| 2026-05-05 07:58 | 24.83229 | 93.43407 | 17978 ft | 387 kts | 281° |
| 2026-05-05 07:58 | 24.83761 | 93.40538 | 17958 ft | 387 kts | 281° |
| 2026-05-05 07:59 | 24.84304 | 93.37608 | 17952 ft | 387 kts | 281° |
| 2026-05-05 07:59 | 24.84839 | 93.34715 | 17947 ft | 386 kts | 281° |
| 2026-05-05 07:59 | 24.85374 | 93.31816 | 17924 ft | 386 kts | 281° |
| 2026-05-05 07:59 | 24.85909 | 93.28912 | 17919 ft | 386 kts | 281° |
| 2026-05-05 08:00 | 24.86439 | 93.26027 | 17904 ft | 387 kts | 280° |
| 2026-05-05 08:00 | 24.86974 | 93.23116 | 17899 ft | 386 kts | 281° |
| 2026-05-05 08:00 | 24.87505 | 93.20229 | 17900 ft | 386 kts | 281° |
| 2026-05-05 08:00 | 24.88034 | 93.17340 | 17902 ft | 386 kts | 281° |
| 2026-05-05 08:01 | 24.88568 | 93.14429 | 17910 ft | 386 kts | 281° |
| 2026-05-05 08:01 | 24.89098 | 93.11533 | 17903 ft | 386 kts | 281° |
| 2026-05-05 08:01 | 24.89626 | 93.08647 | 17890 ft | 387 kts | 281° |
| 2026-05-05 08:01 | 24.90156 | 93.05747 | 17897 ft | 387 kts | 281° |
| 2026-05-05 08:02 | 24.90689 | 93.02833 | 17901 ft | 387 kts | 281° |
| 2026-05-05 08:02 | 24.91460 | 92.99985 | 17911 ft | 388 kts | 291° |
| 2026-05-05 08:02 | 24.92729 | 92.97348 | 17901 ft | 390 kts | 302° |
| 2026-05-05 08:02 | 24.94436 | 92.94995 | 17914 ft | 391 kts | 310° |
| 2026-05-05 08:03 | 24.96284 | 92.92793 | 17914 ft | 391 kts | 311° |
| 2026-05-05 08:03 | 24.98139 | 92.90620 | 17904 ft | 390 kts | 311° |
| 2026-05-05 08:03 | 24.99993 | 92.88451 | 17893 ft | 390 kts | 311° |
| 2026-05-05 08:03 | 25.01868 | 92.86247 | 17900 ft | 390 kts | 311° |
| 2026-05-05 08:04 | 25.03715 | 92.84068 | 17904 ft | 390 kts | 311° |
| 2026-05-05 08:04 | 25.05563 | 92.81880 | 17910 ft | 390 kts | 311° |
| 2026-05-05 08:04 | 25.07402 | 92.79689 | 17916 ft | 389 kts | 310° |
| 2026-05-05 08:04 | 25.09030 | 92.77284 | 17922 ft | 388 kts | 302° |
| 2026-05-05 08:05 | 25.10484 | 92.74788 | 17934 ft | 387 kts | 301° |
| 2026-05-05 08:05 | 25.11930 | 92.72282 | 17939 ft | 387 kts | 301° |
| 2026-05-05 08:05 | 25.13389 | 92.69779 | 17942 ft | 387 kts | 302° |
| 2026-05-05 08:05 | 25.14847 | 92.67297 | 17946 ft | 388 kts | 302° |
| 2026-05-05 08:06 | 25.16330 | 92.64786 | 17948 ft | 388 kts | 302° |
| 2026-05-05 08:06 | 25.17797 | 92.62306 | 17953 ft | 388 kts | 302° |
| 2026-05-05 08:06 | 25.19266 | 92.59827 | 17958 ft | 388 kts | 302° |
| 2026-05-05 08:06 | 25.20738 | 92.57343 | 17963 ft | 389 kts | 302° |
| 2026-05-05 08:07 | 25.22225 | 92.54834 | 17967 ft | 389 kts | 302° |
| 2026-05-05 08:07 | 25.23700 | 92.52344 | 17971 ft | 389 kts | 302° |
| 2026-05-05 08:07 | 25.25179 | 92.49848 | 17976 ft | 388 kts | 302° |
| 2026-05-05 08:07 | 25.26659 | 92.47346 | 17971 ft | 388 kts | 302° |
| 2026-05-05 08:08 | 25.28137 | 92.44846 | 17963 ft | 388 kts | 302° |
| 2026-05-05 08:08 | 25.29615 | 92.42346 | 17958 ft | 388 kts | 302° |
| 2026-05-05 08:08 | 25.31089 | 92.39853 | 17956 ft | 388 kts | 302° |
| 2026-05-05 08:08 | 25.32562 | 92.37355 | 17845 ft | 388 kts | 302° |
| 2026-05-05 08:09 | 25.34023 | 92.34876 | 17607 ft | 386 kts | 302° |
| 2026-05-05 08:09 | 25.35498 | 92.32362 | 17345 ft | 384 kts | 302° |
| 2026-05-05 08:09 | 25.36951 | 92.29887 | 17089 ft | 383 kts | 302° |
| 2026-05-05 08:09 | 25.38399 | 92.27425 | 16739 ft | 381 kts | 302° |
| 2026-05-05 08:10 | 25.39901 | 92.25030 | 16318 ft | 379 kts | 307° |
| 2026-05-05 08:10 | 25.41657 | 92.22900 | 15887 ft | 377 kts | 315° |
| 2026-05-05 08:10 | 25.43688 | 92.21056 | 15431 ft | 376 kts | 322° |
| 2026-05-05 08:10 | 25.45822 | 92.19419 | 14974 ft | 375 kts | 323° |
| 2026-05-05 08:11 | 25.48000 | 92.17798 | 14514 ft | 373 kts | 324° |
| 2026-05-05 08:11 | 25.50156 | 92.16196 | 14046 ft | 371 kts | 324° |
| 2026-05-05 08:11 | 25.52280 | 92.14616 | 13583 ft | 369 kts | 324° |
| 2026-05-05 08:11 | 25.54399 | 92.13035 | 13117 ft | 367 kts | 323° |
| 2026-05-05 08:12 | 25.56524 | 92.11445 | 12645 ft | 365 kts | 323° |
| 2026-05-05 08:12 | 25.58611 | 92.09883 | 12188 ft | 363 kts | 323° |
| 2026-05-05 08:12 | 25.60698 | 92.08319 | 11733 ft | 360 kts | 323° |
| 2026-05-05 08:12 | 25.62769 | 92.06767 | 11272 ft | 358 kts | 323° |
| 2026-05-05 08:13 | 25.64831 | 92.05219 | 10820 ft | 356 kts | 323° |
| 2026-05-05 08:13 | 25.66871 | 92.03686 | 10446 ft | 351 kts | 323° |
| 2026-05-05 08:13 | 25.68864 | 92.02190 | 10338 ft | 336 kts | 323° |
| 2026-05-05 08:13 | 25.70768 | 92.00761 | 10238 ft | 322 kts | 323° |
| 2026-05-05 08:14 | 25.72595 | 91.99390 | 10144 ft | 309 kts | 323° |
| 2026-05-05 08:14 | 25.74327 | 91.98085 | 10056 ft | 296 kts | 323° |
| 2026-05-05 08:14 | 25.75986 | 91.96834 | 9945 ft | 284 kts | 323° |
| 2026-05-05 08:14 | 25.77632 | 91.95594 | 9584 ft | 284 kts | 323° |
| 2026-05-05 08:15 | 25.79264 | 91.94363 | 9247 ft | 282 kts | 323° |
| 2026-05-05 08:15 | 25.80867 | 91.93117 | 9002 ft | 278 kts | 320° |
| 2026-05-05 08:15 | 25.82295 | 91.91730 | 8997 ft | 270 kts | 312° |
| 2026-05-05 08:15 | 25.83552 | 91.90192 | 9015 ft | 277 kts | 308° |
| 2026-05-05 08:16 | 25.84830 | 91.88516 | 9029 ft | 282 kts | 308° |
| 2026-05-05 08:16 | 25.86090 | 91.86855 | 8818 ft | 283 kts | 308° |
| 2026-05-05 08:16 | 25.87345 | 91.85204 | 8702 ft | 271 kts | 308° |
| 2026-05-05 08:16 | 25.88534 | 91.83646 | 8643 ft | 258 kts | 308° |
| 2026-05-05 08:17 | 25.89492 | 91.82011 | 8331 ft | 253 kts | 288° |
| 2026-05-05 08:17 | 25.89772 | 91.80132 | 8039 ft | 247 kts | 270° |
| 2026-05-05 08:17 | 25.89766 | 91.78217 | 7751 ft | 243 kts | 269° |
| 2026-05-05 08:17 | 25.89747 | 91.76356 | 7458 ft | 241 kts | 269° |
| 2026-05-05 08:18 | 25.89735 | 91.74513 | 7170 ft | 237 kts | 269° |
| 2026-05-05 08:18 | 25.89729 | 91.72691 | 6878 ft | 234 kts | 269° |
| 2026-05-05 08:18 | 25.89725 | 91.70911 | 6605 ft | 231 kts | 269° |
| 2026-05-05 08:18 | 25.89723 | 91.69123 | 6325 ft | 229 kts | 270° |
| 2026-05-05 08:19 | 25.89722 | 91.67366 | 6064 ft | 229 kts | 270° |
| 2026-05-05 08:19 | 25.89722 | 91.65608 | 5791 ft | 229 kts | 270° |
| 2026-05-05 08:19 | 25.89723 | 91.63845 | 5520 ft | 228 kts | 270° |
| 2026-05-05 08:19 | 25.89723 | 91.62088 | 5247 ft | 227 kts | 270° |
| 2026-05-05 08:20 | 25.89723 | 91.60347 | 4942 ft | 226 kts | 270° |
| 2026-05-05 08:20 | 25.89723 | 91.58609 | 4573 ft | 224 kts | 270° |
| 2026-05-05 08:20 | 25.89723 | 91.56852 | 4055 ft | 230 kts | 270° |
| 2026-05-05 08:20 | 25.89730 | 91.55084 | 3557 ft | 233 kts | 274° |
| 2026-05-05 08:21 | 25.90189 | 91.53451 | 3494 ft | 221 kts | 309° |
| 2026-05-05 08:21 | 25.91455 | 91.52523 | 3437 ft | 223 kts | 346° |
| 2026-05-05 08:21 | 25.93025 | 91.52414 | 3396 ft | 227 kts | 358° |
| 2026-05-05 08:21 | 25.94619 | 91.52423 | 3325 ft | 229 kts | 358° |
| 2026-05-05 08:22 | 25.96217 | 91.52420 | 3209 ft | 229 kts | 1° |
| 2026-05-05 08:22 | 25.97804 | 91.52686 | 2820 ft | 235 kts | 14° |
| 2026-05-05 08:22 | 25.99337 | 91.53263 | 2609 ft | 227 kts | 19° |
| 2026-05-05 08:22 | 26.00792 | 91.53936 | 2184 ft | 223 kts | 21° |
| 2026-05-05 08:23 | 26.02153 | 91.54588 | 1978 ft | 202 kts | 21° |
| 2026-05-05 08:23 | 26.03383 | 91.55184 | 1857 ft | 182 kts | 22° |
| 2026-05-05 08:23 | 26.04503 | 91.55717 | 1603 ft | 170 kts | 20° |
| 2026-05-05 08:23 | 26.05579 | 91.56198 | 1223 ft | 164 kts | 19° |
| 2026-05-05 08:24 | 26.06611 | 91.56647 | 861 ft | 158 kts | 22° |
| 2026-05-05 08:24 | 26.07623 | 91.57125 | 596 ft | 157 kts | 22° |
| 2026-05-05 08:24 | 26.08648 | 91.57593 | 374 ft | 158 kts | 22° |
| 2026-05-05 08:24 | 26.09651 | 91.58057 | 203 ft | 150 kts | 22° |
| 2026-05-05 08:25 | 26.10489 | 91.58440 | 189 ft | 95 kts | 21° |
| 2026-05-05 08:25 | 26.10913 | 91.58638 | 185 ft | 56 kts | 23° |
| 2026-05-05 08:25 | 26.11180 | 91.58768 | 184 ft | 16 kts | 40° |
| 2026-05-05 08:25 | 26.11226 | 91.58778 | 184 ft | 4 kts | 233° |
| 2026-05-05 08:26 | 26.11186 | 91.58764 | 184 ft | 7 kts | 197° |
| 2026-05-05 08:26 | 26.11128 | 91.58738 | 184 ft | 11 kts | 203° |
| 2026-05-05 08:26 | 26.11044 | 91.58697 | 184 ft | 14 kts | 203° |
| 2026-05-05 08:26 | 26.10945 | 91.58652 | 185 ft | 15 kts | 202° |
| 2026-05-05 08:27 | 26.10847 | 91.58608 | 186 ft | 14 kts | 203° |
| 2026-05-05 08:27 | 26.10757 | 91.58583 | 186 ft | 12 kts | 151° |
| 2026-05-05 08:27 | 26.10722 | 91.58658 | 187 ft | 9 kts | 111° |
| 2026-05-05 08:27 | 26.10703 | 91.58706 | 187 ft | 5 kts | 131° |
| 2026-05-05 08:28 | 26.10666 | 91.58707 | 188 ft | 5 kts | 197° |
| 2026-05-05 08:28 | 26.10624 | 91.58688 | 188 ft | 7 kts | 203° |
| 2026-05-05 08:28 | 26.10610 | 91.58682 | 188 ft | 1 kts | 201° |
| 2026-05-05 08:28 | 26.10599 | 91.58681 | 189 ft | 1 kts | 170° |
| 2026-05-05 08:29 | 26.10595 | 91.58682 | 189 ft | 0 kts | 153° |
| 2026-05-05 08:29 | 26.10590 | 91.58687 | 189 ft | 1 kts | 140° |
| 2026-05-05 08:29 | 26.10582 | 91.58697 | 189 ft | 1 kts | 126° |
| 2026-05-05 08:30 | 26.10569 | 91.58724 | 190 ft | 2 kts | 115° |
| 2026-05-05 08:30 | 26.10568 | 91.58727 | 190 ft | 0 kts | 115° |